| Pilot: | GLD1794 Kevin T. | Aircraft: | ATCCOM.ATC_NAME CESSNA. | Distance: | 16NM |
| From: | TVSC | To: | TVSM | Duration: | 0.27 |
| Validation: | Valid | Tipo: | Charter | Tail Number: | PT-GLD |
| ZFW: | 2499 | Block Fuel/Init FOB | 42flight_details.php/35 | Flight Fuel | 42 |
| Passengers: | 2 | Cargo: | 50 | Alternate: | C172 |
| Departure Time: | 1920 | Cruise Speed: | 112 | Flight Level: | FL300 |
| Flight Type: | IFR | Aircraft Type: | C172 | Weight Unit: | Kg |
| Date: | 03/05/2026 | Comments: | GOLD ACARS | Network: | VATSIM |
| Crash: | No | Validator Comments: | Rating | 100 |
| ROUTE | DCT CAI |
| REMARKS | OPR/GOLD VIRTUAL AIRLINES PER/C RMK/FROM TVSC RMK/PIC GLD1794 |
| Crash | OK | Beacon Lights off with engine on | OK | Speed above 250KIAS below 10.000ft | OK |
| Landing Lights OFF below 10.000ft | OK | Landing Lights ON above 10.000ft | OK | Stall | OK |
| Overspeed | OK | Pause | OK | Refuel | OK |
| Slew | OK | Taxi Lights OFF during taxi | OK | Land Lights OFF during take off | OK |
| Landing Lights OFF during landing | OK | Landed in not planned airfield | OK | Taxi speed above 25 kt | OK |
| Incorrect QNH during take off | OK | Incorrect QNH during landing | OK |
| Wind: | 90º/12 kt | Heading: | 74 |
| VS: | -72 ft/min | IAS: | 51 kt |
| Gforce: | 1.1424 G | Bank: | 0.04 |
| Pitch | 3.94 | Flaps | 100 |
| Nav Lights | ON | Landing Lights | ON |
| Beacon Lights | ON | Strobe Lights | ON |
| DATE | EVENT | IAS | ALTITUDE |
|---|---|---|---|
| 2026-05-03 19:20:16 | GOLD ACARS VERSION 3.3.7.1 | 0 | 0 |
| 2026-05-03 19:20:16 | NAV LIGHTS ON | 0 | 0 |
| 2026-05-03 19:20:16 | BOARDING | 0 | 8 |
| 2026-05-03 19:21:28 | BCN LIGHTS ON | 2 | 8 |
| 2026-05-03 19:21:39 | STARTING ENGINE 1 | 2 | 8 |
| 2026-05-03 19:21:45 | FLAP 33% | 2 | 8 |
| 2026-05-03 19:21:53 | TAXI LIGHTS ON | 1 | 8 |
| 2026-05-03 19:22:07 | TAXI TO THE RWY | 4 | 8 |
| 2026-05-03 19:22:22 | STB LIGHTS ON | 1 | 8 |
| 2026-05-03 19:24:40 | GEAR UP | 52 | 1 |
| 2026-05-03 19:24:59 | AP ENGAGED | 55 | 122 |
| 2026-05-03 19:25:16 | FLAP 0% | 73 | 202 |
| 2026-05-03 19:26:01 | CLIMBING | 90 | 455 |
| 2026-05-03 19:26:44 | CRUISE | 115 | 707 |
| 2026-05-03 19:31:15 | LANDING | 116 | 1438 |
| 2026-05-03 19:32:33 | FLAP 33% | 79 | 1024 |
| 2026-05-03 19:32:34 | AP DISENGAGED | 78 | 1013 |
| 2026-05-03 19:32:59 | FLAP 66% | 67 | 773 |
| 2026-05-03 19:33:10 | FLAP 100% | 61 | 670 |
| 2026-05-03 19:35:02 | LANDED AIRPORT [TVSM] | 51 | -4 |
| 2026-05-03 19:35:02 | LANDED - VS: -72 ft/min | 50 | -5 |
| 2026-05-03 19:35:06 | TAXI TO THE GATE | 29 | -5 |
| 2026-05-03 19:35:21 | FLAP 0% | 7 | 1 |
| 2026-05-03 19:35:41 | STB LIGHTS OFF | 0 | 4 |
| 2026-05-03 19:35:42 | TAXI LIGHTS OFF | 0 | 4 |
| 2026-05-03 19:36:11 | AT THE GATE | 0 | 5 |
| 2026-05-03 19:36:23 | LND LIGHTS OFF | 0 | 5 |
| 2026-05-03 19:36:24 | STOPPING ENGINE 1 | 0 | 5 |
| 2026-05-03 19:36:34 | BCN LIGHTS OFF | 0 | 5 |
| 2026-05-03 19:36:34 | FLIGHT FINISHED | 0 | 5 |
| 2026-05-03 19:20:16 | GOLD ACARS VERSION 3.3.7.1 | 0 | 0 |
| 2026-05-03 19:20:16 | NAV LIGHTS ON | 0 | 0 |
| 2026-05-03 19:20:16 | BOARDING | 0 | 8 |
| 2026-05-03 19:21:28 | BCN LIGHTS ON | 2 | 8 |
| 2026-05-03 19:21:39 | STARTING ENGINE 1 | 2 | 8 |
| 2026-05-03 19:21:45 | FLAP 33% | 2 | 8 |
| 2026-05-03 19:21:53 | TAXI LIGHTS ON | 1 | 8 |
| 2026-05-03 19:22:07 | TAXI TO THE RWY | 4 | 8 |
| 2026-05-03 19:22:22 | STB LIGHTS ON | 1 | 8 |
| 2026-05-03 19:24:40 | GEAR UP | 52 | 1 |
| 2026-05-03 19:24:59 | AP ENGAGED | 55 | 122 |
| 2026-05-03 19:25:16 | FLAP 0% | 73 | 202 |
| 2026-05-03 19:26:01 | CLIMBING | 90 | 455 |
| 2026-05-03 19:26:44 | CRUISE | 115 | 707 |
| 2026-05-03 19:31:15 | LANDING | 116 | 1438 |
| 2026-05-03 19:32:33 | FLAP 33% | 79 | 1024 |
| 2026-05-03 19:32:34 | AP DISENGAGED | 78 | 1013 |
| 2026-05-03 19:32:59 | FLAP 66% | 67 | 773 |
| 2026-05-03 19:33:10 | FLAP 100% | 61 | 670 |
| 2026-05-03 19:35:02 | LANDED AIRPORT [TVSM] | 51 | -4 |
| 2026-05-03 19:35:02 | LANDED - VS: -72 ft/min | 50 | -5 |
| 2026-05-03 19:35:06 | TAXI TO THE GATE | 29 | -5 |
| 2026-05-03 19:35:21 | FLAP 0% | 7 | 1 |
| 2026-05-03 19:35:41 | STB LIGHTS OFF | 0 | 4 |
| 2026-05-03 19:35:42 | TAXI LIGHTS OFF | 0 | 4 |
| 2026-05-03 19:36:11 | AT THE GATE | 0 | 5 |
| 2026-05-03 19:36:23 | LND LIGHTS OFF | 0 | 5 |
| 2026-05-03 19:36:24 | STOPPING ENGINE 1 | 0 | 5 |
| 2026-05-03 19:36:34 | BCN LIGHTS OFF | 0 | 5 |
| 2026-05-03 19:36:34 | FLIGHT FINISHED | 0 | 5 |
| 2026-05-03 19:20:16 | GOLD ACARS VERSION 3.3.7.1 | 0 | 0 |
| 2026-05-03 19:20:16 | NAV LIGHTS ON | 0 | 0 |
| 2026-05-03 19:20:16 | BOARDING | 0 | 8 |
| 2026-05-03 19:21:28 | BCN LIGHTS ON | 2 | 8 |
| 2026-05-03 19:21:39 | STARTING ENGINE 1 | 2 | 8 |
| 2026-05-03 19:21:45 | FLAP 33% | 2 | 8 |
| 2026-05-03 19:21:53 | TAXI LIGHTS ON | 1 | 8 |
| 2026-05-03 19:22:07 | TAXI TO THE RWY | 4 | 8 |
| 2026-05-03 19:22:22 | STB LIGHTS ON | 1 | 8 |
| 2026-05-03 19:24:40 | GEAR UP | 52 | 1 |
| 2026-05-03 19:24:59 | AP ENGAGED | 55 | 122 |
| 2026-05-03 19:25:16 | FLAP 0% | 73 | 202 |
| 2026-05-03 19:26:01 | CLIMBING | 90 | 455 |
| 2026-05-03 19:26:44 | CRUISE | 115 | 707 |
| 2026-05-03 19:31:15 | LANDING | 116 | 1438 |
| 2026-05-03 19:32:33 | FLAP 33% | 79 | 1024 |
| 2026-05-03 19:32:34 | AP DISENGAGED | 78 | 1013 |
| 2026-05-03 19:32:59 | FLAP 66% | 67 | 773 |
| 2026-05-03 19:33:10 | FLAP 100% | 61 | 670 |
| 2026-05-03 19:35:02 | LANDED AIRPORT [TVSM] | 51 | -4 |
| 2026-05-03 19:35:02 | LANDED - VS: -72 ft/min | 50 | -5 |
| 2026-05-03 19:35:06 | TAXI TO THE GATE | 29 | -5 |
| 2026-05-03 19:35:21 | FLAP 0% | 7 | 1 |
| 2026-05-03 19:35:41 | STB LIGHTS OFF | 0 | 4 |
| 2026-05-03 19:35:42 | TAXI LIGHTS OFF | 0 | 4 |
| 2026-05-03 19:36:11 | AT THE GATE | 0 | 5 |
| 2026-05-03 19:36:23 | LND LIGHTS OFF | 0 | 5 |
| 2026-05-03 19:36:24 | STOPPING ENGINE 1 | 0 | 5 |
| 2026-05-03 19:36:34 | BCN LIGHTS OFF | 0 | 5 |
| 2026-05-03 19:36:34 | FLIGHT FINISHED | 0 | 5 |
| 2026-05-03 19:20:16 | GOLD ACARS VERSION 3.3.7.1 | 0 | 0 |
| 2026-05-03 19:20:16 | NAV LIGHTS ON | 0 | 0 |
| 2026-05-03 19:20:16 | BOARDING | 0 | 8 |
| 2026-05-03 19:21:28 | BCN LIGHTS ON | 2 | 8 |
| 2026-05-03 19:21:39 | STARTING ENGINE 1 | 2 | 8 |
| 2026-05-03 19:21:45 | FLAP 33% | 2 | 8 |
| 2026-05-03 19:21:53 | TAXI LIGHTS ON | 1 | 8 |
| 2026-05-03 19:22:07 | TAXI TO THE RWY | 4 | 8 |
| 2026-05-03 19:22:22 | STB LIGHTS ON | 1 | 8 |
| 2026-05-03 19:24:40 | GEAR UP | 52 | 1 |
| 2026-05-03 19:24:59 | AP ENGAGED | 55 | 122 |
| 2026-05-03 19:25:16 | FLAP 0% | 73 | 202 |
| 2026-05-03 19:26:01 | CLIMBING | 90 | 455 |
| 2026-05-03 19:26:44 | CRUISE | 115 | 707 |
| 2026-05-03 19:31:15 | LANDING | 116 | 1438 |
| 2026-05-03 19:32:33 | FLAP 33% | 79 | 1024 |
| 2026-05-03 19:32:34 | AP DISENGAGED | 78 | 1013 |
| 2026-05-03 19:32:59 | FLAP 66% | 67 | 773 |
| 2026-05-03 19:33:10 | FLAP 100% | 61 | 670 |
| 2026-05-03 19:35:02 | LANDED AIRPORT [TVSM] | 51 | -4 |
| 2026-05-03 19:35:02 | LANDED - VS: -72 ft/min | 50 | -5 |
| 2026-05-03 19:35:06 | TAXI TO THE GATE | 29 | -5 |
| 2026-05-03 19:35:21 | FLAP 0% | 7 | 1 |
| 2026-05-03 19:35:41 | STB LIGHTS OFF | 0 | 4 |
| 2026-05-03 19:35:42 | TAXI LIGHTS OFF | 0 | 4 |
| 2026-05-03 19:36:11 | AT THE GATE | 0 | 5 |
| 2026-05-03 19:36:23 | LND LIGHTS OFF | 0 | 5 |
| 2026-05-03 19:36:24 | STOPPING ENGINE 1 | 0 | 5 |
| 2026-05-03 19:36:34 | BCN LIGHTS OFF | 0 | 5 |
| 2026-05-03 19:36:34 | FLIGHT FINISHED | 0 | 5 |
| DATE | IAS | GS | ALTITUDE | FUEL USED | OAT | Flight Phase |
|---|---|---|---|---|---|---|
| 2026-05-03 19:21:24 | 2 | 0 | 8 | 0 | 28 | BOARDING |
| 2026-05-03 19:22:24 | 1 | 5 | 8 | 0 | 28 | BOARDING |
| 2026-05-03 19:23:25 | 0 | 22 | 5 | 0 | 28 | TAXI TO THE RWY |
| 2026-05-03 19:24:27 | 15 | 13 | 0 | 0 | 28 | TAXI TO THE RWY |
| 2026-05-03 19:25:27 | 86 | 77 | 257 | 1 | 27 | TAXI TO THE RWY |
| 2026-05-03 19:26:28 | 116 | 111 | 621 | 2 | 26 | TAXI TO THE RWY |
| 2026-05-03 19:27:29 | 122 | 117 | 925 | 3 | 24 | CLIMBING |
| 2026-05-03 19:28:30 | 106 | 102 | 1203 | 3 | 23 | CRUISE |
| 2026-05-03 19:29:31 | 107 | 105 | 1496 | 4 | 23 | CRUISE |
| 2026-05-03 19:30:32 | 125 | 120 | 1642 | 5 | 22 | CRUISE |
| 2026-05-03 19:31:33 | 118 | 115 | 1359 | 6 | 23 | CRUISE |
| 2026-05-03 19:32:33 | 80 | 83 | 1020 | 6 | 24 | LANDING |
| 2026-05-03 19:33:34 | 62 | 64 | 521 | 6 | 27 | LANDING |
| 2026-05-03 19:34:35 | 66 | 63 | 152 | 6 | 27 | LANDING |
| 2026-05-03 19:35:36 | 0 | 4 | 4 | 7 | 27 | LANDING |
| 2026-05-03 19:41:38 | 0 | 0 | 9 | 0 | 27 | TAXI TO THE GATE |